CheckWX is a tool to help pilots better visualize weather data.  It is not intended as a substitute for an official pre-flight weather briefing.

17:48:03 UTC

KMGM METAR
Montgomery Regional (Dannelly Field) Airport
Montgomery, Alabama, USA
Current

55 mins ago

KMGM 271653Z 30005KT 10SM OVC008 11/09 A3003 RMK AO2 CIG 005V011 SLP167 T01110089
Observed
Jan-27 @ 16:53 UTC
Wind
  • 300° at 5 KTS
Visibility
10 SM
Flight Rules
IFR
Cloud Levels
  • Overcast at 800' AGL
Temperature
11°C / 52°F
Dewpoint
C / 48°F
Humidity
88%
Altimeter
30.03" Hg
Pressure
1016.92 hPa
Previous

1 hour ago

KMGM 271625Z 30005KT 10SM OVC005 11/08 A3003 RMK AO2 CIG 004V009 T01060083
Observed
Jan-27 @ 16:25 UTC
Wind
  • 300° at 5 KTS
Visibility
10 SM
Flight Rules
IFR
Cloud Levels
  • Overcast at 500' AGL
Temperature
11°C / 52°F
Dewpoint
C / 46°F
Humidity
82%
Altimeter
30.03" Hg
Pressure
1016.92 hPa
Previous

2 hours ago

KMGM 271553Z 22003KT 10SM OVC004 10/08 A3003 RMK AO2 SLP169 T01000083
Observed
Jan-27 @ 15:53 UTC
Wind
  • 220° at 3 KTS
Visibility
10 SM
Flight Rules
LIFR
Cloud Levels
  • Overcast at 400' AGL
Temperature
10°C / 50°F
Dewpoint
C / 46°F
Humidity
88%
Altimeter
30.03" Hg
Pressure
1016.92 hPa